Time;durP1;ratioP1;P1;durP2;ratioP2;P2;SDS_P1;SDS_P2;PMS_P1;PMS_P2;Temp;Humidity;BMP_temperature;BMP_pressure;BME280_temperature;BME280_humidity;BME280_pressure;Samples;Min_cycle;Max_cycle;Signal;HPM_P1;HPM_P2
2022/01/12 00:01:47;;;;;;;;;;;4.30;98.80;;;4.04;100.00;102462.28;4955927;29;20163;-79
2022/01/12 00:04:14;;;;;;;;;;;5.90;99.00;;;4.06;100.00;102464.97;4949531;29;19938;-78
2022/01/12 00:06:41;;;;;;;;;;;7.60;99.50;;;4.05;100.00;102468.41;4950973;28;19984;-78
2022/01/12 00:09:08;;;;;;;;;;;4.80;98.80;;;4.04;100.00;102461.41;4951735;29;19952;-78
2022/01/12 00:11:36;;;;;;;;;;;4.40;98.80;;;4.06;100.00;102464.97;4954286;29;19936;-77
2022/01/12 00:14:04;;;;;;;;;;;4.60;99.00;;;4.01;100.00;102459.56;4935104;28;19931;-77
2022/01/12 00:16:32;;;;;;;;;;;4.50;99.20;;;3.99;100.00;102465.59;4952592;29;19930;-77
2022/01/12 00:18:59;;;;;;;;;;;4.40;99.10;;;3.94;100.00;102455.84;4935651;29;20256;-77
2022/01/12 00:21:26;;;;;;;;;;;6.10;99.40;;;3.91;100.00;102453.16;4950895;29;19938;-77
2022/01/12 00:23:53;;;;;;;;;;;6.90;99.70;;;3.88;100.00;102453.03;4949767;29;19930;-77
2022/01/12 00:34:40;;;;;;;;;;;4.30;98.70;;;3.69;100.00;102449.75;4936279;29;19930;-77
2022/01/12 00:37:07;;;;;;;;;;;4.90;99.40;;;3.64;100.00;102447.78;4931258;29;20021;-78
2022/01/12 00:39:33;;;;;;;;;;;6.60;99.60;;;3.59;100.00;102442.41;4916173;29;20407;-77
2022/01/12 00:42:00;;;;;;;;;;;7.60;99.90;;;3.51;100.00;102444.72;4931767;29;19934;-77
2022/01/12 00:44:34;;;;;;;;;;;5.40;99.30;;;3.44;100.00;102440.09;4914245;29;20481;-77
2022/01/12 00:47:02;;;;;;;;;;;4.30;98.90;;;3.37;100.00;102446.78;4931054;29;19930;-77
2022/01/12 00:49:29;;;;;;;;;;;4.00;99.10;;;3.35;100.00;102453.63;4915365;29;20016;-77
2022/01/12 00:51:55;;;;;;;;;;;3.80;99.40;;;3.27;100.00;102449.84;4932705;29;19931;-77
2022/01/12 00:54:23;;;;;;;;;;;5.50;99.90;;;3.24;100.00;102441.94;4929407;29;19931;-78
2022/01/12 00:56:51;;;;;;;;;;;3.70;99.50;;;3.18;100.00;102446.88;4929376;29;19931;-77
2022/01/12 00:59:19;;;;;;;;;;;5.90;99.90;;;3.14;100.00;102445.88;4913804;29;19931;-77
2022/01/12 01:01:45;;;;;;;;;;;6.30;99.90;;;3.09;100.00;102432.69;4913910;29;20646;-77
2022/01/12 01:04:13;;;;;;;;;;;3.90;99.70;;;3.02;100.00;102429.78;4928849;29;19966;-77
2022/01/12 01:06:40;;;;;;;;;;;3.50;99.70;;;3.01;100.00;102439.25;4939909;29;19973;-77
2022/01/12 01:09:07;;;;;;;;;;;3.40;99.60;;;2.95;100.00;102450.31;4947833;28;19934;-77
2022/01/12 01:11:35;;;;;;;;;;;3.70;99.70;;;2.95;100.00;102446.84;4947011;28;19935;-77
2022/01/12 01:14:13;;;;;;;;;;;3.50;99.90;;;2.84;100.00;102447.28;4930237;29;19938;-78
2022/01/12 01:25:22;;;;;;;;;;;4.80;99.90;;;2.79;100.00;102459.19;4917400;29;19931;-76
2022/01/12 01:27:55;;;;;;;;;;;3.20;99.80;;;2.55;100.00;102478.13;4932712;28;19930;-77
2022/01/12 01:30:22;;;;;;;;;;;3.10;99.90;;;2.45;100.00;102486.34;4931373;28;19930;-77
2022/01/12 01:32:50;;;;;;;;;;;3.40;99.90;;;2.49;100.00;102490.84;4934223;29;19954;-77
2022/01/12 01:35:18;;;;;;;;;;;2.90;99.90;;;2.50;100.00;102492.63;4933664;29;20288;-77
2022/01/12 01:37:46;;;;;;;;;;;5.50;99.90;;;2.45;100.00;102501.03;4951397;28;19937;-77
2022/01/12 01:40:14;;;;;;;;;;;5.10;99.90;;;2.39;100.00;102483.47;4949746;28;19930;-76
2022/01/12 01:53:43;;;;;;;;;;;5.70;99.90;;;2.12;100.00;102482.31;4931702;29;19937;-76
2022/01/12 01:56:10;;;;;;;;;;;4.90;99.90;;;2.09;100.00;102473.50;4946488;28;19934;-76
2022/01/12 01:58:37;;;;;;;;;;;4.40;99.90;;;2.07;100.00;102472.53;4930201;28;19931;-76
2022/01/12 02:01:05;;;;;;;;;;;2.80;99.90;;;2.05;100.00;102466.38;4930027;29;19931;-76
2022/01/12 02:03:37;;;;;;;;;;;2.70;99.90;;;1.98;100.00;102457.44;4944469;28;20303;-75
2022/01/12 02:06:05;;;;;;;;;;;2.70;99.90;;;1.93;100.00;102456.34;4930212;29;19931;-76
2022/01/12 02:08:35;;;;;;;;;;;2.50;99.90;;;1.90;100.00;102457.09;4930252;28;20017;-75
2022/01/12 02:11:27;;;;;;;;;;;3.80;99.90;;;1.77;100.00;102471.22;4946721;29;19934;-77
2022/01/12 02:14:00;;;;;;;;;;;2.20;99.90;;;1.79;100.00;102469.59;4929768;29;20603;-76
2022/01/12 02:16:36;;;;;;;;;;;2.60;99.90;;;1.66;100.00;102469.81;4946067;28;19930;-75
2022/01/12 02:19:15;;;;;;;;;;;2.30;99.90;;;1.58;100.00;102478.97;4915633;29;20037;-76
2022/01/12 02:35:48;;;;;;;;;;;4.70;99.90;;;1.13;100.00;102480.31;4944906;29;19941;-76
2022/01/12 02:41:04;;;;;;;;;;;1.80;99.90;;;0.94;100.00;102479.41;4926823;29;19931;-76
2022/01/12 02:53:52;;;;;;;;;;;1.50;99.90;;;0.63;100.00;102498.59;4926407;29;19931;-77
2022/01/12 02:56:23;;;;;;;;;;;1.60;99.90;;;0.50;100.00;102491.88;4910434;29;19961;-76
2022/01/12 02:58:51;;;;;;;;;;;2.80;99.90;;;0.51;100.00;102497.97;4925879;29;20030;-77
2022/01/12 03:04:06;;;;;;;;;;;1.50;99.90;;;0.34;100.00;102505.75;4926255;29;19931;-76
2022/01/12 03:06:38;;;;;;;;;;;1.30;99.90;;;0.30;100.00;102503.78;4927186;29;20104;-76
2022/01/12 03:09:07;;;;;;;;;;;4.10;99.90;;;0.24;100.00;102488.84;4913493;29;19980;-76
2022/01/12 03:11:35;;;;;;;;;;;1.00;99.90;;;0.21;100.00;102501.59;4929279;28;19937;-76
2022/01/12 03:14:10;;;;;;;;;;;1.20;99.90;;;0.22;100.00;102508.56;4928003;28;19941;-76
2022/01/12 03:16:37;;;;;;;;;;;1.20;99.90;;;0.12;100.00;102502.00;4928482;29;19934;-77
2022/01/12 03:19:10;;;;;;;;;;;2.40;99.90;;;0.09;100.00;102493.19;4945175;28;20613;-76
2022/01/12 03:21:37;;;;;;;;;;;1.10;99.90;;;0.04;100.00;102494.63;4929386;29;19930;-77
2022/01/12 03:24:09;;;;;;;;;;;0.90;99.90;;;0.03;100.00;102492.84;4928264;29;20667;-76
2022/01/12 03:26:37;;;;;;;;;;;0.80;99.90;;;-0.07;100.00;102494.97;4945178;28;20498;-76
2022/01/12 03:29:05;;;;;;;;;;;1.10;99.90;;;-0.12;100.00;102492.94;4948057;28;19930;-76
2022/01/12 03:31:35;;;;;;;;;;;0.70;99.90;;;-0.11;100.00;102499.88;4963705;28;20025;-76
2022/01/12 03:36:42;;;;;;;;;;;0.90;99.90;;;-0.10;100.00;102504.25;4951758;28;20414;-77
2022/01/12 03:39:12;;;;;;;;;;;0.90;99.90;;;-0.20;100.00;102488.22;4968114;28;19934;-78
2022/01/12 03:41:43;;;;;;;;;;;0.90;99.90;;;-0.24;100.00;102494.03;4967941;28;19926;-78
2022/01/12 03:44:13;;;;;;;;;;;1.90;99.90;;;-0.31;100.00;102487.63;4934940;28;19930;-76
2022/01/12 03:46:40;;;;;;;;;;;0.70;99.90;;;-0.34;100.00;102494.31;4950729;28;20325;-78
2022/01/12 03:49:07;;;;;;;;;;;0.80;99.90;;;-0.35;100.00;102493.47;4966103;28;19961;-77
2022/01/12 03:51:36;;;;;;;;;;;0.50;99.90;;;-0.42;100.00;102499.06;4935939;28;19948;-79
2022/01/12 03:54:06;;;;;;;;;;;0.70;99.90;;;-0.48;100.00;102489.28;4949212;28;19930;-77
2022/01/12 03:56:33;;;;;;;;;;;0.70;99.90;;;-0.53;100.00;102497.63;4950910;28;19936;-77
2022/01/12 03:59:00;;;;;;;;;;;0.60;99.90;;;-0.62;100.00;102500.56;4966393;28;19975;-76
2022/01/12 04:01:27;;;;;;;;;;;0.50;99.90;;;-0.60;100.00;102510.19;4947987;28;19926;-77
2022/01/12 04:04:05;;;;;;;;;;;0.20;99.90;;;-0.58;100.00;102525.78;4930943;28;20714;-76
2022/01/12 04:09:40;;;;;;;;;;;2.70;99.90;;;-0.69;100.00;102529.47;4952705;28;19937;-76
2022/01/12 04:12:08;;;;;;;;;;;0.30;99.90;;;-0.74;100.00;102522.34;4946973;28;19988;-76
2022/01/12 04:14:36;;;;;;;;;;;0.00;99.90;;;-0.75;100.00;102522.22;4930403;28;19964;-76
2022/01/12 04:17:04;;;;;;;;;;;0.20;99.90;;;-0.99;100.00;102522.63;4962911;28;19930;-76
2022/01/12 04:19:32;;;;;;;;;;;0.00;99.90;;;-1.00;100.00;102518.25;4947185;28;20074;-76
2022/01/12 04:22:08;;;;;;;;;;;0.10;99.90;;;-1.02;100.00;102517.25;4947260;28;20037;-76
2022/01/12 04:24:35;;;;;;;;;;;-0.10;99.90;;;-0.93;100.00;102527.25;4947435;28;20310;-76
2022/01/12 04:27:02;;;;;;;;;;;0.10;99.90;;;-1.06;100.00;102529.13;4947060;28;19940;-77
2022/01/12 04:29:29;;;;;;;;;;;-1.00;99.90;;;-1.08;100.00;102533.31;4963092;28;20333;-77
2022/01/12 04:31:56;;;;;;;;;;;-2.50;99.90;;;-1.00;100.00;102547.56;4931687;28;19948;-77
2022/01/12 04:34:23;;;;;;;;;;;0.10;99.90;;;-1.00;100.00;102559.59;4962070;28;19930;-77
2022/01/12 04:36:50;;;;;;;;;;;-0.40;99.90;;;-0.97;100.00;102569.22;4934699;29;20013;-76
2022/01/12 04:39:17;;;;;;;;;;;1.60;99.90;;;-0.97;100.00;102577.88;4960150;28;19937;-77
2022/01/12 04:41:44;;;;;;;;;;;-0.10;99.90;;;-1.03;100.00;102586.13;4942214;28;19965;-76
2022/01/12 04:44:12;;;;;;;;;;;-0.30;99.90;;;-1.08;100.00;102577.22;4959582;28;19930;-77
2022/01/12 04:46:51;;;;;;;;;;;-0.10;99.90;;;-1.22;100.00;102568.63;4962174;28;19973;-77
2022/01/12 04:51:50;;;;;;;;;;;0.30;99.90;;;-1.26;100.00;102577.00;4943738;28;20034;-76
2022/01/12 04:54:18;;;;;;;;;;;-0.40;99.90;;;-1.25;100.00;102573.63;4942093;28;20017;-77
2022/01/12 04:56:45;;;;;;;;;;;-0.30;99.90;;;-1.24;100.00;102577.13;4943942;28;19934;-77
2022/01/12 04:59:12;;;;;;;;;;;-0.50;99.90;;;-1.39;100.00;102574.50;4943537;28;20739;-77
2022/01/12 05:01:48;;;;;;;;;;;-0.30;99.90;;;-1.44;100.00;102584.53;4941083;29;19930;-77
2022/01/12 05:07:23;;;;;;;;;;;-0.40;99.90;;;-1.48;100.00;102569.66;4945762;28;19930;-77
2022/01/12 05:12:47;;;;;;;;;;;2.40;99.90;;;-1.39;100.00;102569.31;4931820;29;20637;-76
2022/01/12 05:15:20;;;;;;;;;;;-0.40;99.90;;;-1.77;100.00;102569.66;4949702;28;19936;-77
2022/01/12 05:17:47;;;;;;;;;;;-0.40;99.90;;;-1.70;100.00;102581.25;4918940;29;19989;-77
2022/01/12 05:20:14;;;;;;;;;;;-0.50;99.90;;;-1.76;100.00;102596.34;4917239;29;19938;-78
2022/01/12 05:22:41;;;;;;;;;;;0.60;99.90;;;-1.79;100.00;102583.25;4932382;29;20004;-78
2022/01/12 05:25:08;;;;;;;;;;;-0.70;99.90;;;-1.84;100.00;102589.81;4916198;29;20478;-78
2022/01/12 05:27:35;;;;;;;;;;;-0.70;99.90;;;-1.78;100.00;102597.94;4917740;29;19931;-78
2022/01/12 05:30:03;;;;;;;;;;;-0.60;99.90;;;-1.76;100.00;102599.84;4945973;28;20020;-78
2022/01/12 05:32:31;;;;;;;;;;;-0.80;99.90;;;-1.79;100.00;102593.56;4950486;28;19930;-77
2022/01/12 05:35:03;;;;;;;;;;;-0.90;99.90;;;-1.83;100.00;102583.88;4932890;29;19930;-77
2022/01/12 05:37:30;;;;;;;;;;;-0.70;99.90;;;-1.79;100.00;102591.91;4927482;28;19931;-77
2022/01/12 05:40:00;;;;;;;;;;;-0.90;99.90;;;-1.81;100.00;102583.13;4929838;29;19936;-77
2022/01/12 05:42:32;;;;;;;;;;;-0.60;99.90;;;-1.74;100.00;102579.25;4937746;28;19937;-77
2022/01/12 05:44:59;;;;;;;;;;;-0.90;99.90;;;-1.65;100.00;102581.50;4925070;28;19931;-77
2022/01/12 05:50:18;;;;;;;;;;;-0.80;99.90;;;-1.66;100.00;102567.72;4925828;28;19961;-77
2022/01/12 05:52:45;;;;;;;;;;;-0.10;99.90;;;-1.59;100.00;102563.84;4919616;28;19931;-77
2022/01/12 05:55:13;;;;;;;;;;;1.80;99.90;;;-1.47;100.00;102561.09;4949486;28;19930;-77
2022/01/12 05:57:41;;;;;;;;;;;-0.30;99.90;;;-1.52;100.00;102568.56;4951080;28;20603;-77
2022/01/12 06:00:13;;;;;;;;;;;-0.20;99.90;;;-1.64;100.00;102571.28;4966943;28;19937;-76
2022/01/12 06:02:42;;;;;;;;;;;-0.60;99.90;;;-1.73;100.00;102571.63;4937279;28;20048;-78
2022/01/12 06:05:18;;;;;;;;;;;-0.50;99.90;;;-1.67;100.00;102570.22;4951183;28;20356;-77
2022/01/12 06:07:46;;;;;;;;;;;-0.60;99.90;;;-1.76;100.00;102576.59;4950971;28;20007;-77
2022/01/12 06:10:14;;;;;;;;;;;-0.30;99.90;;;-1.88;100.00;102584.44;4935170;28;19930;-77
2022/01/12 06:12:41;;;;;;;;;;;-0.70;99.90;;;-2.11;100.00;102588.16;4949481;28;19989;-77
2022/01/12 06:15:09;;;;;;;;;;;-0.80;99.90;;;-1.98;100.00;102570.88;4965155;28;19937;-77
2022/01/12 06:17:36;;;;;;;;;;;-1.00;99.90;;;-1.89;100.00;102568.88;4949874;28;20501;-77
2022/01/12 06:20:05;;;;;;;;;;;-0.90;99.90;;;-1.88;100.00;102578.41;4934996;28;20458;-77
2022/01/12 06:22:53;;;;;;;;;;;-0.90;99.90;;;-1.84;100.00;102571.75;4952730;28;19930;-77
2022/01/12 06:25:20;;;;;;;;;;;-0.80;99.90;;;-1.73;100.00;102574.19;4948559;28;19931;-77
2022/01/12 06:28:37;;;;;;;;;;;-1.00;99.90;;;-1.69;100.00;102570.13;4949174;28;19935;-76
2022/01/12 06:33:22;;;;;;;;;;;-0.80;99.90;;;-1.54;100.00;102574.47;4949806;28;19934;-77
2022/01/12 06:35:49;;;;;;;;;;;-0.70;99.90;;;-1.57;100.00;102570.00;4967295;28;20566;-78
2022/01/12 06:38:16;;;;;;;;;;;-0.60;99.90;;;-1.62;100.00;102567.13;4972119;28;19926;-78
2022/01/12 06:40:43;;;;;;;;;;;-0.60;99.90;;;-1.63;100.00;102570.50;4969543;28;19926;-77
2022/01/12 06:43:11;;;;;;;;;;;-0.60;99.90;;;-1.51;100.00;102575.50;4949570;28;20076;-78
2022/01/12 06:45:39;;;;;;;;;;;-0.70;99.90;;;-1.67;100.00;102586.59;4937045;29;19965;-77
2022/01/12 06:48:06;;;;;;;;;;;-0.70;99.90;;;-2.02;100.00;102591.31;4939077;29;19937;-78
2022/01/12 06:50:34;;;;;;;;;;;2.20;99.90;;;-2.03;100.00;102605.03;4936615;29;19931;-78
2022/01/12 06:53:01;;;;;;;;;;;-0.80;99.90;;;-1.99;100.00;102616.44;4954240;29;19990;-77
2022/01/12 06:55:28;;;;;;;;;;;-0.80;99.90;;;-2.01;100.00;102638.69;4935844;29;19930;-77
2022/01/12 06:57:56;;;;;;;;;;;-0.90;99.90;;;-2.00;100.00;102638.75;4935824;29;19949;-77
2022/01/12 07:00:22;;;;;;;;;;;-0.90;99.90;;;-1.99;100.00;102647.41;4950599;28;19931;-77
2022/01/12 07:02:49;;;;;;;;;;;-0.90;99.90;;;-2.05;100.00;102654.72;4921780;28;19930;-78
2022/01/12 07:05:18;;;;;;;;;;;-1.00;99.90;;;-2.16;100.00;102652.38;4916846;29;19931;-77
2022/01/12 07:07:46;;;;;;;;;;;-1.00;99.90;;;-2.08;100.00;102668.34;4947431;28;19984;-78
2022/01/12 07:10:26;;;;;;;;;;;-0.70;99.90;;;-2.07;100.00;102659.81;4947068;28;19930;-77
2022/01/12 07:12:58;;;;;;;;;;;-0.50;99.90;;;-2.07;100.00;102662.38;4931367;29;20329;-77
2022/01/12 07:15:25;;;;;;;;;;;-0.90;99.90;;;-2.05;100.00;102659.88;4948361;28;20001;-78
2022/01/12 07:17:53;;;;;;;;;;;-0.90;99.90;;;-2.15;100.00;102666.13;4947616;28;19930;-76
2022/01/12 07:20:20;;;;;;;;;;;2.10;99.90;;;-2.10;100.00;102677.69;4934482;29;19933;-77
2022/01/12 07:22:47;;;;;;;;;;;-0.10;99.90;;;-2.02;100.00;102683.34;4934332;29;19945;-76
2022/01/12 07:25:14;;;;;;;;;;;-1.10;99.90;;;-2.00;100.00;102692.06;4932554;29;20029;-78
2022/01/12 07:27:41;;;;;;;;;;;-1.20;99.90;;;-2.12;100.00;102691.25;4954292;28;19935;-78
2022/01/12 07:30:08;;;;;;;;;;;-0.70;99.90;;;-2.21;100.00;102674.38;4951476;29;19931;-77
2022/01/12 07:32:36;;;;;;;;;;;-1.10;99.90;;;-2.12;100.00;102676.66;4951094;29;20026;-77
2022/01/12 07:35:04;;;;;;;;;;;-1.00;99.90;;;-2.00;100.00;102687.78;4935671;29;19930;-78
2022/01/12 07:37:31;;;;;;;;;;;-1.00;99.90;;;-1.92;100.00;102679.66;4958848;28;19930;-78
2022/01/12 07:39:58;;;;;;;;;;;2.40;99.90;;;-1.75;100.00;102673.88;4969910;28;19930;-78
2022/01/12 07:42:25;;;;;;;;;;;-0.90;99.90;;;-1.67;100.00;102661.47;4953255;28;19930;-77
2022/01/12 07:44:59;;;;;;;;;;;2.30;99.90;;;-1.58;100.00;102662.03;4954211;28;20000;-77
2022/01/12 07:47:28;;;;;;;;;;;-0.70;99.90;;;-1.50;100.00;102670.25;4969267;28;19930;-78
2022/01/12 07:49:55;;;;;;;;;;;-0.60;99.90;;;-1.39;100.00;102683.88;4950922;29;19934;-77
2022/01/12 07:52:22;;;;;;;;;;;-0.60;99.90;;;-1.27;100.00;102682.81;4951069;29;20052;-77
2022/01/12 07:54:49;;;;;;;;;;;-0.30;99.90;;;-1.22;100.00;102684.03;4951291;29;20319;-77
2022/01/12 07:57:22;;;;;;;;;;;-0.50;99.90;;;-1.27;100.00;102695.75;4950780;29;20395;-78
2022/01/12 07:59:49;;;;;;;;;;;-0.20;99.90;;;-1.21;100.00;102702.19;4950632;29;19953;-78
2022/01/12 08:02:16;;;;;;;;;;;1.10;99.90;;;-1.20;100.00;102711.72;4951660;28;19930;-77
2022/01/12 08:04:43;;;;;;;;;;;-0.20;99.90;;;-1.13;100.00;102720.75;4950471;28;19937;-78
2022/01/12 08:07:11;;;;;;;;;;;-0.30;99.90;;;-1.14;100.00;102716.38;4933980;28;20030;-77
2022/01/12 08:09:39;;;;;;;;;;;-0.10;99.90;;;-1.12;100.00;102721.66;4933751;28;19945;-77
2022/01/12 08:12:08;;;;;;;;;;;-0.20;99.90;;;-1.05;100.00;102723.81;4949537;29;20436;-78
2022/01/12 08:14:35;;;;;;;;;;;-0.20;99.90;;;-1.03;100.00;102720.53;4965303;28;19984;-76
2022/01/12 08:17:02;;;;;;;;;;;-0.10;99.90;;;-0.96;100.00;102724.38;4964523;28;19934;-77
2022/01/12 08:19:33;;;;;;;;;;;0.00;99.90;;;-0.96;100.00;102726.06;4980483;28;19937;-77
2022/01/12 08:22:00;;;;;;;;;;;1.00;99.90;;;-0.94;100.00;102717.59;4940461;28;19985;-78
2022/01/12 08:24:27;;;;;;;;;;;-0.10;99.90;;;-0.91;100.00;102717.78;4942047;29;20075;-78
2022/01/12 08:27:06;;;;;;;;;;;2.60;99.90;;;-0.87;100.00;102717.16;4928107;29;19931;-78
2022/01/12 08:29:33;;;;;;;;;;;0.00;99.90;;;-0.82;100.00;102729.50;4928210;29;19932;-78
2022/01/12 08:32:00;;;;;;;;;;;2.10;99.90;;;-0.81;100.00;102742.50;4927298;29;20466;-78
2022/01/12 08:34:28;;;;;;;;;;;3.40;99.90;;;-0.76;100.00;102735.03;4937006;29;19915;-79
2022/01/12 08:36:55;;;;;;;;;;;2.90;99.90;;;-0.76;100.00;102737.63;4948942;28;19962;-80
2022/01/12 08:39:24;;;;;;;;;;;0.00;99.90;;;-0.70;100.00;102742.28;4938528;29;19930;-80
2022/01/12 08:41:51;;;;;;;;;;;2.20;99.90;;;-0.59;100.00;102743.81;4938718;29;20034;-78
2022/01/12 08:44:31;;;;;;;;;;;2.00;99.90;;;-0.54;100.00;102746.69;4950932;29;19977;-78
2022/01/12 08:46:58;;;;;;;;;;;0.30;99.90;;;-0.48;100.00;102755.69;4935057;28;19994;-78
2022/01/12 08:49:26;;;;;;;;;;;0.20;99.90;;;-0.43;100.00;102766.31;4951047;29;20029;-78
2022/01/12 08:51:58;;;;;;;;;;;1.80;99.90;;;-0.38;100.00;102761.41;4936894;29;19930;-78
2022/01/12 08:54:25;;;;;;;;;;;0.40;99.90;;;-0.34;100.00;102760.78;4951963;29;20394;-78
2022/01/12 08:56:53;;;;;;;;;;;3.70;99.90;;;-0.29;100.00;102765.44;4935493;29;20341;-78
2022/01/12 08:59:22;;;;;;;;;;;0.30;99.90;;;-0.23;100.00;102774.41;4931854;29;20345;-78
2022/01/12 09:01:49;;;;;;;;;;;2.70;99.90;;;-0.16;100.00;102771.34;4931490;29;19937;-78
2022/01/12 09:04:17;;;;;;;;;;;0.40;99.90;;;-0.13;100.00;102779.28;4936032;29;19935;-78
2022/01/12 09:06:49;;;;;;;;;;;3.70;99.90;;;-0.08;100.00;102788.25;4949618;29;19931;-78
2022/01/12 09:09:16;;;;;;;;;;;0.60;99.90;;;0.02;100.00;102791.34;4917986;29;19930;-78
2022/01/12 09:11:43;;;;;;;;;;;0.90;99.90;;;0.06;100.00;102785.53;4930890;29;20679;-78
2022/01/12 09:14:10;;;;;;;;;;;3.10;99.90;;;0.11;100.00;102778.94;4930713;29;19930;-78
2022/01/12 09:16:37;;;;;;;;;;;3.10;99.90;;;0.22;100.00;102783.03;4932142;29;19941;-79
2022/01/12 09:19:04;;;;;;;;;;;1.90;99.90;;;0.32;100.00;102784.47;4935766;29;19956;-77
2022/01/12 09:21:33;;;;;;;;;;;0.90;99.90;;;0.48;100.00;102788.81;4938371;29;19933;-78
2022/01/12 09:24:00;;;;;;;;;;;1.10;99.90;;;0.56;100.00;102789.25;4936939;29;19939;-78
2022/01/12 09:26:27;;;;;;;;;;;1.60;99.90;;;0.67;100.00;102795.03;4939074;29;20011;-78
2022/01/12 09:28:54;;;;;;;;;;;1.30;99.90;;;0.78;100.00;102788.75;4915857;28;19974;-79
2022/01/12 09:31:22;;;;;;;;;;;4.00;99.90;;;0.90;100.00;102813.56;4946904;29;19930;-77
2022/01/12 09:33:50;;;;;;;;;;;1.40;99.90;;;0.91;100.00;102802.41;4946836;28;19938;-78
2022/01/12 09:36:17;;;;;;;;;;;2.20;99.90;;;1.01;100.00;102802.06;4945165;29;19934;-78
2022/01/12 09:38:44;;;;;;;;;;;3.30;99.90;;;1.06;100.00;102811.00;4929635;29;20407;-77
2022/01/12 09:41:11;;;;;;;;;;;2.50;99.90;;;1.12;100.00;102813.06;4929726;29;19937;-78
2022/01/12 09:43:41;;;;;;;;;;;1.70;99.90;;;1.12;100.00;102816.53;4947387;29;19965;-79
2022/01/12 09:46:12;;;;;;;;;;;1.60;99.90;;;1.18;100.00;102815.09;4918709;29;19931;-79
2022/01/12 09:48:40;;;;;;;;;;;4.50;99.90;;;1.19;100.00;102809.09;4919149;29;19942;-78
2022/01/12 09:51:08;;;;;;;;;;;1.90;99.90;;;1.25;100.00;102817.19;4918231;29;19934;-78
2022/01/12 09:53:37;;;;;;;;;;;4.10;99.90;;;1.27;100.00;102831.13;4919624;29;19939;-78
2022/01/12 09:56:24;;;;;;;;;;;1.90;99.90;;;1.27;100.00;102823.34;4953660;28;19930;-78
2022/01/12 09:58:58;;;;;;;;;;;2.10;99.90;;;1.32;100.00;102821.00;4958651;28;19930;-78
2022/01/12 10:01:32;;;;;;;;;;;2.00;99.90;;;1.34;100.00;102822.88;4953393;28;19930;-77
2022/01/12 10:04:06;;;;;;;;;;;2.30;99.90;;;1.38;100.00;102819.63;4957518;28;20415;-78
2022/01/12 10:06:47;;;;;;;;;;;1.80;99.90;;;1.39;100.00;102812.72;4978326;28;19930;-78
2022/01/12 10:09:16;;;;;;;;;;;2.20;99.90;;;1.46;100.00;102821.75;4963516;28;19930;-78
2022/01/12 10:11:54;;;;;;;;;;;2.10;99.90;;;1.49;100.00;102822.81;4976756;28;19930;-78
2022/01/12 10:14:24;;;;;;;;;;;2.30;99.90;;;1.59;100.00;102828.50;4947508;28;19930;-77
2022/01/12 10:16:58;;;;;;;;;;;5.20;99.90;;;1.64;100.00;102827.03;4961213;28;19934;-78
2022/01/12 10:19:31;;;;;;;;;;;2.30;99.90;;;1.68;100.00;102821.16;4949265;28;19926;-78
2022/01/12 10:22:00;;;;;;;;;;;3.40;99.90;;;1.74;100.00;102815.41;4985493;28;20581;-78
2022/01/12 10:24:28;;;;;;;;;;;2.30;99.90;;;1.76;100.00;102822.47;4974210;28;19936;-78
2022/01/12 10:26:56;;;;;;;;;;;3.20;99.90;;;1.77;100.00;102812.97;4990570;28;19977;-78
2022/01/12 10:29:28;;;;;;;;;;;0.60;99.90;;;1.81;100.00;102815.81;4974444;28;19997;-78
2022/01/12 10:32:00;;;;;;;;;;;3.30;99.90;;;1.85;100.00;102803.88;4990210;28;19927;-78
2022/01/12 10:34:29;;;;;;;;;;;2.50;99.90;;;1.97;100.00;102807.09;4973529;28;19984;-78
2022/01/12 10:36:57;;;;;;;;;;;5.20;99.90;;;2.04;100.00;102807.41;4957338;28;19930;-78
2022/01/12 10:39:26;;;;;;;;;;;2.50;99.90;;;2.14;100.00;102801.88;4973750;28;19956;-78
2022/01/12 10:42:01;;;;;;;;;;;4.90;99.90;;;2.28;100.00;102797.34;4980039;28;20413;-78
2022/01/12 10:44:33;;;;;;;;;;;-0.20;99.90;;;2.38;100.00;102788.28;4956750;28;19965;-78
2022/01/12 10:47:27;;;;;;;;;;;2.80;99.90;;;2.43;100.00;102802.44;4956004;28;19953;-78
2022/01/12 10:49:54;;;;;;;;;;;3.00;99.90;;;2.47;100.00;102811.25;4957502;29;19934;-78
2022/01/12 10:52:23;;;;;;;;;;;4.50;99.90;;;2.53;100.00;102809.84;4955332;28;19954;-78
2022/01/12 10:54:53;;;;;;;;;;;3.70;99.90;;;2.60;100.00;102812.75;4956479;29;19962;-77
2022/01/12 10:57:27;;;;;;;;;;;6.40;99.90;;;2.64;100.00;102812.94;4940977;28;19935;-78
2022/01/12 11:00:26;;;;;;;;;;;3.20;99.90;;;2.71;100.00;102803.72;4958195;28;19931;-79
2022/01/12 11:02:56;;;;;;;;;;;3.40;99.90;;;2.73;100.00;102796.03;4950177;29;19930;-79
2022/01/12 11:05:25;;;;;;;;;;;3.80;99.90;;;2.81;100.00;102781.66;4970913;28;19946;-78
2022/01/12 11:07:53;;;;;;;;;;;3.40;99.90;;;2.88;100.00;102783.75;4972571;28;19958;-78
2022/01/12 11:10:21;;;;;;;;;;;4.20;99.90;;;2.96;100.00;102782.38;4973703;28;19973;-78
2022/01/12 11:12:49;;;;;;;;;;;5.60;99.90;;;3.01;100.00;102779.13;4946411;28;19930;-78
2022/01/12 11:15:19;;;;;;;;;;;7.00;99.90;;;3.02;100.00;102770.50;4951990;29;19926;-78
2022/01/12 11:17:49;;;;;;;;;;;5.00;99.90;;;3.08;100.00;102773.38;4956780;28;20025;-78
2022/01/12 11:20:27;;;;;;;;;;;4.00;99.90;;;3.09;100.00;102776.03;4981380;28;20342;-77
2022/01/12 11:23:12;;;;;;;;;;;3.70;99.90;;;3.17;100.00;102768.59;4969723;28;19934;-77
2022/01/12 11:25:42;;;;;;;;;;;5.00;99.90;;;3.23;100.00;102765.38;4946228;29;19961;-77
2022/01/12 11:28:15;;;;;;;;;;;3.80;99.90;;;3.30;100.00;102758.75;4947480;28;20407;-77
2022/01/12 11:30:50;;;;;;;;;;;6.60;99.90;;;3.36;100.00;102764.19;4952964;28;19957;-79
2022/01/12 11:33:38;;;;;;;;;;;3.90;99.80;;;3.42;100.00;102758.38;4954477;29;19926;-79
2022/01/12 11:36:18;;;;;;;;;;;2.90;99.90;;;3.48;100.00;102759.53;4953439;29;19926;-78
2022/01/12 11:38:50;;;;;;;;;;;4.00;99.90;;;3.51;100.00;102754.47;4952036;28;19934;-78
2022/01/12 11:41:21;;;;;;;;;;;5.40;99.90;;;3.61;100.00;102754.88;4969474;28;20025;-78
2022/01/12 11:43:53;;;;;;;;;;;4.10;99.90;;;3.70;100.00;102744.84;4946135;28;19942;-77
2022/01/12 11:46:24;;;;;;;;;;;4.40;98.80;;;3.79;100.00;102750.47;4947984;28;19953;-77
2022/01/12 11:48:51;;;;;;;;;;;4.00;99.50;;;3.90;100.00;102753.50;4941014;29;19930;-76
2022/01/12 11:51:43;;;;;;;;;;;4.30;99.10;;;3.91;100.00;102752.69;4948875;28;20351;-78
2022/01/12 11:54:18;;;;;;;;;;;4.30;98.10;;;4.01;100.00;102745.25;4945657;28;19930;-77
2022/01/12 11:57:08;;;;;;;;;;;4.40;98.40;;;4.14;100.00;102752.75;4947604;29;20349;-78
2022/01/12 12:00:00;;;;;;;;;;;4.80;98.40;;;4.25;100.00;102746.25;4934353;29;20060;-77
2022/01/12 12:02:51;;;;;;;;;;;4.70;98.20;;;4.26;100.00;102749.75;4945079;28;19933;-76
2022/01/12 12:05:21;;;;;;;;;;;4.80;98.20;;;4.44;100.00;102740.91;4948518;28;19980;-79
2022/01/12 12:08:02;;;;;;;;;;;4.80;98.50;;;4.54;100.00;102748.25;4959811;28;19930;-76
2022/01/12 12:10:30;;;;;;;;;;;4.90;98.10;;;4.65;100.00;102751.28;4946058;28;20020;-77
2022/01/12 12:12:58;;;;;;;;;;;4.90;98.50;;;4.72;100.00;102747.19;4961719;28;19930;-76
2022/01/12 12:15:26;;;;;;;;;;;5.20;98.30;;;4.87;100.00;102745.16;4928919;29;20056;-76
2022/01/12 12:17:54;;;;;;;;;;;5.20;98.20;;;4.82;100.00;102744.09;4929711;29;20040;-76
2022/01/12 12:20:23;;;;;;;;;;;5.30;97.70;;;4.87;100.00;102746.88;4945196;29;19926;-76
2022/01/12 12:22:55;;;;;;;;;;;5.70;97.80;;;4.91;100.00;102746.16;4944396;29;19931;-78
2022/01/12 12:25:27;;;;;;;;;;;7.00;98.10;;;4.89;100.00;102747.81;4950295;28;19930;-79
2022/01/12 12:27:55;;;;;;;;;;;5.40;97.20;;;4.96;100.00;102740.28;4933045;29;19944;-80
2022/01/12 12:30:23;;;;;;;;;;;4.80;96.80;;;5.08;100.00;102742.47;4935393;29;19973;-76
2022/01/12 12:32:53;;;;;;;;;;;5.60;97.40;;;5.09;100.00;102738.13;4944151;29;19969;-77
2022/01/12 12:35:29;;;;;;;;;;;5.60;97.60;;;5.17;100.00;102741.94;4909980;29;19927;-78
2022/01/12 12:38:03;;;;;;;;;;;5.70;97.80;;;5.14;100.00;102733.97;4929374;29;20329;-77
2022/01/12 12:40:35;;;;;;;;;;;5.50;96.40;;;5.31;100.00;102734.59;4943590;29;19984;-76
2022/01/12 12:43:20;;;;;;;;;;;5.90;97.20;;;5.33;99.89;102740.75;4945054;28;19937;-77